Triumph, IL (61371)

11:24 PM CDT on July 01, 2015 (GMT -0500)
Northbrook | | Change Station
CLOSE
Current Station
Personal Weather Station
Location: Mendota, IL
Elevation: 778 ft
Nearby Weather Stations
Active Advisory: Flood Warning

Elev 778 ft 41.56 °N, 89.12 °W | Updated 19 seconds ago

Overcast
Overcast
59.7 °F
Feels Like 59.7 °F
N
0.0
Wind Variable Wind from East
Gusts 0.0 mph

Today
High -- | Low -- °F
--% Chance of Precip.
Yesterday
High -- | Low -- °F
Precip. -- in
5:25 AM 8:33 PM
Full, 100% visible
Pressure 30.00 in
Visibility 10.0 miles
Clouds Overcast 12000 ft
Dew Point 57 °F
Humidity 91%
Rainfall 0.00 in
Snow Depth Not available.
UV 0.0 out of 12
Pollen 4.10 out of 12
Air Quality Not available.
Flu Activity Not available.
METAR KVYS 020355Z AUTO 08008KT 10SM OVC120 16/12 A3000 RMK AO2 T01630123

More Conditions Fewer Conditions

Pressure 30.00 in
Visibility 10.0 miles
Clouds Overcast 12000 ft
Dew Point 57 °F
Humidity 91%
Rainfall 0.00 in
Snow Depth Not available.
UV 0.0 out of 12
Pollen 4.10 out of 12
Air Quality Not available.
Flu Activity Not available.
METAR KVYS 020355Z AUTO 08008KT 10SM OVC120 16/12 A3000 RMK AO2 T01630123

More Conditions Fewer Conditions

10-Day Weather Forecast

×

Almanac

Astronomy

Jul. 01, 2015 Rise Set
Actual Time
Civil Twilight
Nautical Twilight
Astronomical Twilight
Moon
Length of Visible Light
Length of Day
Tomorrow will be .
, % of the Moon is Illuminated

Today's Extremes

State Highs State Lows

Community

WunderPhotos

Upload Photos

1,834,412 photos uploaded!

WunderBlogs® & News

Nearby

Air Quality

  Air Quality AQ Index Pollutant
Not available.

Snow Depth

Station Depth Elevation

Earthquake Activity

City Distance Mag. Time & Date
Minimum magnitude displayed is 2.5.

Coastal Water Temperatures

Place Temperature

Stations

Nearby Weather Stations

Station Location Temp. Windchill Dew Point Humidity Wind Precip. Elev Updated Type
                   
Flood Warning
Statement as of 9:00 PM CDT on July 01, 2015

The Flood Warning continues for
the Illinois River at La Salle.
* Until further notice.
* At 845 PM Wednesday the stage was 27.8 feet.
* Flood stage is 20.0 feet.
* Moderate flooding is occurring and moderate flooding is forecast.
* Forecast... the river will continue to fall to a stage of 26.7 feet
by Friday morning.
* Impact... at 27.5 feet... Hennepin levee is overtopped at Road
crossing.


Lat... Lon 4137 8896 4135 8929 4126 8930 4128 8896



Rc